sensor_id;sensor_type;location;lat;lon;timestamp;pressure;altitude;pressure_sealevel;temperature;humidity
46464;BME280;32161;48.148;-1.554;2022-11-15T00:01:08;100148.94;;;11.48;91.60
46464;BME280;32161;48.148;-1.554;2022-11-15T00:03:36;100147.78;;;11.44;91.56
46464;BME280;32161;48.148;-1.554;2022-11-15T00:06:04;100146.50;;;11.30;92.24
46464;BME280;32161;48.148;-1.554;2022-11-15T00:08:32;100141.38;;;11.34;92.24
46464;BME280;32161;48.148;-1.554;2022-11-15T00:11:02;100139.59;;;11.22;92.63
46464;BME280;32161;48.148;-1.554;2022-11-15T00:13:30;100132.63;;;11.32;92.48
46464;BME280;32161;48.148;-1.554;2022-11-15T00:15:59;100131.72;;;11.26;92.66
46464;BME280;32161;48.148;-1.554;2022-11-15T00:18:28;100131.44;;;11.22;92.77
46464;BME280;32161;48.148;-1.554;2022-11-15T00:21:03;100123.34;;;11.28;93.02
46464;BME280;32161;48.148;-1.554;2022-11-15T00:23:31;100110.38;;;11.35;92.97
46464;BME280;32161;48.148;-1.554;2022-11-15T00:25:59;100111.53;;;11.39;92.60
46464;BME280;32161;48.148;-1.554;2022-11-15T00:28:27;100101.91;;;11.31;92.89
46464;BME280;32161;48.148;-1.554;2022-11-15T00:31:00;100093.84;;;11.41;92.73
46464;BME280;32161;48.148;-1.554;2022-11-15T00:33:29;100090.84;;;11.38;92.41
46464;BME280;32161;48.148;-1.554;2022-11-15T00:36:00;100078.34;;;11.20;93.57
46464;BME280;32161;48.148;-1.554;2022-11-15T00:38:31;100072.53;;;11.33;93.46
46464;BME280;32161;48.148;-1.554;2022-11-15T00:41:00;100064.50;;;11.43;93.23
46464;BME280;32161;48.148;-1.554;2022-11-15T00:43:28;100061.34;;;11.52;92.11
46464;BME280;32161;48.148;-1.554;2022-11-15T00:45:56;100065.84;;;11.63;91.16
46464;BME280;32161;48.148;-1.554;2022-11-15T00:48:23;100047.22;;;11.55;92.12
46464;BME280;32161;48.148;-1.554;2022-11-15T00:50:52;100039.50;;;11.46;91.70
46464;BME280;32161;48.148;-1.554;2022-11-15T00:53:20;100038.19;;;11.27;92.91
46464;BME280;32161;48.148;-1.554;2022-11-15T00:55:47;100023.13;;;11.19;93.33
46464;BME280;32161;48.148;-1.554;2022-11-15T00:58:15;100024.75;;;11.20;94.10
46464;BME280;32161;48.148;-1.554;2022-11-15T01:00:43;100021.28;;;11.25;93.36
46464;BME280;32161;48.148;-1.554;2022-11-15T01:03:10;100017.66;;;11.41;92.71
46464;BME280;32161;48.148;-1.554;2022-11-15T01:05:38;100011.59;;;11.34;92.87
46464;BME280;32161;48.148;-1.554;2022-11-15T01:08:11;100007.66;;;11.47;92.81
46464;BME280;32161;48.148;-1.554;2022-11-15T01:10:39;100001.72;;;11.50;92.02
46464;BME280;32161;48.148;-1.554;2022-11-15T01:13:07;99998.38;;;11.43;92.97
46464;BME280;32161;48.148;-1.554;2022-11-15T01:15:39;99995.28;;;11.34;93.26
46464;BME280;32161;48.148;-1.554;2022-11-15T01:18:06;99984.94;;;11.36;93.45
46464;BME280;32161;48.148;-1.554;2022-11-15T01:20:34;99979.81;;;11.40;93.29
46464;BME280;32161;48.148;-1.554;2022-11-15T01:23:01;99975.47;;;11.39;93.80
46464;BME280;32161;48.148;-1.554;2022-11-15T01:25:30;99969.00;;;11.45;93.38
46464;BME280;32161;48.148;-1.554;2022-11-15T01:27:58;99974.56;;;11.55;93.07
46464;BME280;32161;48.148;-1.554;2022-11-15T01:30:25;99976.47;;;11.55;93.30
46464;BME280;32161;48.148;-1.554;2022-11-15T01:32:53;99963.53;;;11.67;92.33
46464;BME280;32161;48.148;-1.554;2022-11-15T01:35:21;99948.63;;;11.47;93.90
46464;BME280;32161;48.148;-1.554;2022-11-15T01:37:49;99952.13;;;11.43;93.93
46464;BME280;32161;48.148;-1.554;2022-11-15T01:40:16;99947.94;;;11.35;93.83
46464;BME280;32161;48.148;-1.554;2022-11-15T01:42:45;99939.03;;;11.67;92.82
46464;BME280;32161;48.148;-1.554;2022-11-15T01:45:14;99943.38;;;11.68;92.44
46464;BME280;32161;48.148;-1.554;2022-11-15T01:47:45;99932.09;;;11.54;92.72
46464;BME280;32161;48.148;-1.554;2022-11-15T01:50:17;99932.28;;;11.47;93.19
46464;BME280;32161;48.148;-1.554;2022-11-15T01:52:47;99937.50;;;11.76;92.77
46464;BME280;32161;48.148;-1.554;2022-11-15T01:55:18;99930.84;;;11.67;92.42
46464;BME280;32161;48.148;-1.554;2022-11-15T01:57:52;99926.22;;;11.67;92.52
46464;BME280;32161;48.148;-1.554;2022-11-15T02:00:21;99916.31;;;11.83;91.90
46464;BME280;32161;48.148;-1.554;2022-11-15T02:02:48;99912.84;;;11.61;92.76
46464;BME280;32161;48.148;-1.554;2022-11-15T02:05:16;99916.91;;;11.58;93.51
46464;BME280;32161;48.148;-1.554;2022-11-15T02:07:45;99907.91;;;11.58;93.41
46464;BME280;32161;48.148;-1.554;2022-11-15T02:10:18;99895.34;;;11.57;93.28
46464;BME280;32161;48.148;-1.554;2022-11-15T02:12:48;99889.63;;;11.53;93.02
46464;BME280;32161;48.148;-1.554;2022-11-15T02:15:16;99894.38;;;11.68;93.29
46464;BME280;32161;48.148;-1.554;2022-11-15T02:17:58;99879.59;;;11.59;93.24
46464;BME280;32161;48.148;-1.554;2022-11-15T02:24:25;99867.53;;;11.77;93.07
46464;BME280;32161;48.148;-1.554;2022-11-15T02:27:34;99865.78;;;11.92;92.13
46464;BME280;32161;48.148;-1.554;2022-11-15T02:30:25;99873.78;;;12.09;91.21
46464;BME280;32161;48.148;-1.554;2022-11-15T02:33:01;99862.31;;;11.75;92.73
46464;BME280;32161;48.148;-1.554;2022-11-15T02:35:41;99860.28;;;11.60;93.70
46464;BME280;32161;48.148;-1.554;2022-11-15T02:38:17;99847.75;;;11.86;93.20
46464;BME280;32161;48.148;-1.554;2022-11-15T02:40:53;99824.34;;;11.90;92.90
46464;BME280;32161;48.148;-1.554;2022-11-15T02:43:29;99808.31;;;11.94;92.56
46464;BME280;32161;48.148;-1.554;2022-11-15T02:46:22;99808.00;;;11.90;93.05
46464;BME280;32161;48.148;-1.554;2022-11-15T02:49:12;99799.91;;;11.95;92.87
46464;BME280;32161;48.148;-1.554;2022-11-15T02:51:42;99797.72;;;11.97;92.91
46464;BME280;32161;48.148;-1.554;2022-11-15T02:54:14;99783.00;;;11.98;92.99
46464;BME280;32161;48.148;-1.554;2022-11-15T02:56:42;99795.47;;;11.89;93.13
46464;BME280;32161;48.148;-1.554;2022-11-15T03:02:29;99800.63;;;11.86;94.19
46464;BME280;32161;48.148;-1.554;2022-11-15T03:05:07;99792.47;;;11.91;94.25
46464;BME280;32161;48.148;-1.554;2022-11-15T03:07:47;99779.00;;;11.74;94.98
46464;BME280;32161;48.148;-1.554;2022-11-15T03:10:24;99762.00;;;11.94;94.27
46464;BME280;32161;48.148;-1.554;2022-11-15T03:12:57;99766.72;;;12.09;93.73
46464;BME280;32161;48.148;-1.554;2022-11-15T03:15:31;99768.16;;;12.21;92.75
46464;BME280;32161;48.148;-1.554;2022-11-15T03:18:07;99757.88;;;12.34;92.70
46464;BME280;32161;48.148;-1.554;2022-11-15T03:20:40;99767.03;;;12.17;93.19
46464;BME280;32161;48.148;-1.554;2022-11-15T03:23:10;99739.06;;;12.37;92.90
46464;BME280;32161;48.148;-1.554;2022-11-15T03:25:43;99753.47;;;12.28;92.65
46464;BME280;32161;48.148;-1.554;2022-11-15T03:28:25;99754.81;;;12.20;94.04
46464;BME280;32161;48.148;-1.554;2022-11-15T03:30:56;99744.56;;;12.48;92.44
46464;BME280;32161;48.148;-1.554;2022-11-15T03:33:25;99744.03;;;12.56;92.26
46464;BME280;32161;48.148;-1.554;2022-11-15T03:35:55;99736.09;;;12.44;92.98
46464;BME280;32161;48.148;-1.554;2022-11-15T03:38:26;99748.66;;;12.50;93.38
46464;BME280;32161;48.148;-1.554;2022-11-15T03:41:00;99746.22;;;12.54;93.55
46464;BME280;32161;48.148;-1.554;2022-11-15T03:43:35;99736.94;;;12.55;93.16
46464;BME280;32161;48.148;-1.554;2022-11-15T03:46:10;99725.41;;;12.27;94.55
46464;BME280;32161;48.148;-1.554;2022-11-15T03:48:46;99716.50;;;12.52;93.73
46464;BME280;32161;48.148;-1.554;2022-11-15T03:51:17;99723.28;;;12.44;94.05
46464;BME280;32161;48.148;-1.554;2022-11-15T03:53:46;99721.38;;;12.45;93.96
46464;BME280;32161;48.148;-1.554;2022-11-15T03:56:13;99720.03;;;12.48;94.54
46464;BME280;32161;48.148;-1.554;2022-11-15T03:58:41;99708.84;;;12.49;94.13
46464;BME280;32161;48.148;-1.554;2022-11-15T04:01:08;99701.50;;;12.55;94.14
46464;BME280;32161;48.148;-1.554;2022-11-15T04:03:36;99695.00;;;12.71;93.13
46464;BME280;32161;48.148;-1.554;2022-11-15T04:06:06;99689.81;;;12.69;92.86
46464;BME280;32161;48.148;-1.554;2022-11-15T04:08:33;99684.63;;;12.68;93.56
46464;BME280;32161;48.148;-1.554;2022-11-15T04:11:01;99677.53;;;12.72;93.10
46464;BME280;32161;48.148;-1.554;2022-11-15T04:13:28;99675.34;;;12.59;93.88
46464;BME280;32161;48.148;-1.554;2022-11-15T04:15:56;99675.34;;;12.64;94.14
46464;BME280;32161;48.148;-1.554;2022-11-15T04:18:23;99668.84;;;12.80;93.17
46464;BME280;32161;48.148;-1.554;2022-11-15T04:20:51;99661.47;;;12.65;93.26
46464;BME280;32161;48.148;-1.554;2022-11-15T04:23:37;99659.56;;;12.71;93.30
46464;BME280;32161;48.148;-1.554;2022-11-15T04:26:23;99655.19;;;12.75;93.47
46464;BME280;32161;48.148;-1.554;2022-11-15T04:28:50;99643.72;;;12.58;93.41
46464;BME280;32161;48.148;-1.554;2022-11-15T04:31:35;99646.41;;;12.37;95.51
46464;BME280;32161;48.148;-1.554;2022-11-15T04:34:03;99639.63;;;12.55;94.18
46464;BME280;32161;48.148;-1.554;2022-11-15T04:36:30;99641.53;;;12.55;95.07
46464;BME280;32161;48.148;-1.554;2022-11-15T04:39:17;99638.28;;;12.68;93.68
46464;BME280;32161;48.148;-1.554;2022-11-15T04:41:44;99623.28;;;12.86;92.98
46464;BME280;32161;48.148;-1.554;2022-11-15T04:44:12;99626.59;;;12.73;94.00
46464;BME280;32161;48.148;-1.554;2022-11-15T04:46:39;99635.59;;;12.88;93.13
46464;BME280;32161;48.148;-1.554;2022-11-15T04:49:07;99628.47;;;12.82;92.94
46464;BME280;32161;48.148;-1.554;2022-11-15T04:51:34;99604.75;;;12.78;94.14
46464;BME280;32161;48.148;-1.554;2022-11-15T04:54:02;99613.47;;;12.75;94.28
46464;BME280;32161;48.148;-1.554;2022-11-15T04:56:31;99606.91;;;12.55;95.50
46464;BME280;32161;48.148;-1.554;2022-11-15T04:58:59;99601.22;;;12.62;95.61
46464;BME280;32161;48.148;-1.554;2022-11-15T05:01:27;99599.56;;;12.51;96.72
46464;BME280;32161;48.148;-1.554;2022-11-15T05:03:54;99585.94;;;12.66;96.86
46464;BME280;32161;48.148;-1.554;2022-11-15T05:06:39;99588.66;;;12.71;96.25
46464;BME280;32161;48.148;-1.554;2022-11-15T05:09:07;99591.13;;;12.57;97.61
46464;BME280;32161;48.148;-1.554;2022-11-15T05:11:36;99575.28;;;12.49;98.64
46464;BME280;32161;48.148;-1.554;2022-11-15T05:14:03;99569.56;;;12.56;98.75
46464;BME280;32161;48.148;-1.554;2022-11-15T05:16:31;99557.84;;;12.45;99.39
46464;BME280;32161;48.148;-1.554;2022-11-15T05:18:59;99569.03;;;12.38;100.00
46464;BME280;32161;48.148;-1.554;2022-11-15T05:21:26;99560.31;;;12.52;100.00
46464;BME280;32161;48.148;-1.554;2022-11-15T05:23:54;99559.78;;;12.50;100.00
46464;BME280;32161;48.148;-1.554;2022-11-15T05:26:21;99553.47;;;12.49;100.00
46464;BME280;32161;48.148;-1.554;2022-11-15T05:28:54;99546.13;;;12.60;99.90
46464;BME280;32161;48.148;-1.554;2022-11-15T05:31:22;99544.50;;;12.59;100.00
46464;BME280;32161;48.148;-1.554;2022-11-15T05:33:50;99534.97;;;12.51;100.00
46464;BME280;32161;48.148;-1.554;2022-11-15T05:36:27;99531.69;;;12.39;100.00
46464;BME280;32161;48.148;-1.554;2022-11-15T05:38:56;99531.41;;;12.35;100.00
46464;BME280;32161;48.148;-1.554;2022-11-15T05:41:29;99525.16;;;12.35;100.00
46464;BME280;32161;48.148;-1.554;2022-11-15T05:43:59;99513.69;;;12.63;100.00
46464;BME280;32161;48.148;-1.554;2022-11-15T05:46:28;99517.81;;;12.45;100.00
46464;BME280;32161;48.148;-1.554;2022-11-15T05:48:57;99516.16;;;12.39;100.00
46464;BME280;32161;48.148;-1.554;2022-11-15T05:51:25;99511.78;;;12.33;100.00
46464;BME280;32161;48.148;-1.554;2022-11-15T05:53:57;99510.16;;;12.42;100.00
46464;BME280;32161;48.148;-1.554;2022-11-15T05:56:25;99509.59;;;12.40;100.00
46464;BME280;32161;48.148;-1.554;2022-11-15T05:58:54;99508.00;;;12.50;100.00
46464;BME280;32161;48.148;-1.554;2022-11-15T06:01:25;99502.25;;;12.56;100.00
46464;BME280;32161;48.148;-1.554;2022-11-15T06:03:54;99497.63;;;12.26;100.00
46464;BME280;32161;48.148;-1.554;2022-11-15T06:06:22;99491.63;;;12.19;100.00
46464;BME280;32161;48.148;-1.554;2022-11-15T06:08:49;99487.81;;;12.35;100.00
46464;BME280;32161;48.148;-1.554;2022-11-15T06:11:17;99490.00;;;12.28;100.00
46464;BME280;32161;48.148;-1.554;2022-11-15T06:13:44;99484.56;;;12.23;100.00
46464;BME280;32161;48.148;-1.554;2022-11-15T06:16:12;99479.66;;;12.35;100.00
46464;BME280;32161;48.148;-1.554;2022-11-15T06:18:41;99484.00;;;12.21;100.00
46464;BME280;32161;48.148;-1.554;2022-11-15T06:21:09;99483.72;;;12.48;100.00
46464;BME280;32161;48.148;-1.554;2022-11-15T06:23:36;99480.19;;;12.22;100.00
46464;BME280;32161;48.148;-1.554;2022-11-15T06:26:04;99475.28;;;12.04;100.00
46464;BME280;32161;48.148;-1.554;2022-11-15T06:28:33;99459.47;;;12.21;100.00
46464;BME280;32161;48.148;-1.554;2022-11-15T06:31:03;99463.84;;;12.27;100.00
46464;BME280;32161;48.148;-1.554;2022-11-15T06:33:31;99459.22;;;12.12;100.00
46464;BME280;32161;48.148;-1.554;2022-11-15T06:36:02;99456.47;;;12.33;100.00
46464;BME280;32161;48.148;-1.554;2022-11-15T06:38:29;99457.03;;;12.25;100.00
46464;BME280;32161;48.148;-1.554;2022-11-15T06:41:02;99449.13;;;12.33;100.00
46464;BME280;32161;48.148;-1.554;2022-11-15T06:43:30;99451.25;;;12.67;100.00
46464;BME280;32161;48.148;-1.554;2022-11-15T06:45:58;99438.22;;;12.38;100.00
46464;BME280;32161;48.148;-1.554;2022-11-15T06:48:26;99437.69;;;12.31;100.00
46464;BME280;32161;48.148;-1.554;2022-11-15T06:50:54;99434.94;;;12.46;100.00
46464;BME280;32161;48.148;-1.554;2022-11-15T06:53:24;99432.50;;;12.35;100.00
46464;BME280;32161;48.148;-1.554;2022-11-15T06:55:52;99418.63;;;12.41;100.00
46464;BME280;32161;48.148;-1.554;2022-11-15T06:58:21;99420.50;;;12.46;100.00
46464;BME280;32161;48.148;-1.554;2022-11-15T07:00:49;99409.59;;;12.41;100.00
46464;BME280;32161;48.148;-1.554;2022-11-15T07:03:16;99407.69;;;12.46;100.00
46464;BME280;32161;48.148;-1.554;2022-11-15T07:05:52;99400.63;;;12.35;100.00
46464;BME280;32161;48.148;-1.554;2022-11-15T07:08:20;99407.16;;;12.39;100.00
46464;BME280;32161;48.148;-1.554;2022-11-15T07:10:50;99404.97;;;12.36;100.00
46464;BME280;32161;48.148;-1.554;2022-11-15T07:13:17;99396.50;;;12.58;100.00
46464;BME280;32161;48.148;-1.554;2022-11-15T07:15:45;99401.38;;;12.56;100.00
46464;BME280;32161;48.148;-1.554;2022-11-15T07:18:13;99396.50;;;12.53;100.00
46464;BME280;32161;48.148;-1.554;2022-11-15T07:20:40;99386.44;;;12.33;100.00
46464;BME280;32161;48.148;-1.554;2022-11-15T07:23:08;99391.84;;;12.59;100.00
46464;BME280;32161;48.148;-1.554;2022-11-15T07:25:35;99396.19;;;12.60;100.00
46464;BME280;32161;48.148;-1.554;2022-11-15T07:28:04;99393.53;;;12.39;100.00
46464;BME280;32161;48.148;-1.554;2022-11-15T07:30:32;99390.00;;;12.34;100.00
46464;BME280;32161;48.148;-1.554;2022-11-15T07:33:00;99390.53;;;12.46;100.00
46464;BME280;32161;48.148;-1.554;2022-11-15T07:35:28;99394.31;;;12.45;100.00
46464;BME280;32161;48.148;-1.554;2022-11-15T07:37:58;99391.38;;;12.26;100.00
46464;BME280;32161;48.148;-1.554;2022-11-15T07:40:27;99389.44;;;12.42;100.00
46464;BME280;32161;48.148;-1.554;2022-11-15T07:42:59;99386.41;;;12.59;100.00
46464;BME280;32161;48.148;-1.554;2022-11-15T07:45:29;99388.06;;;12.44;100.00
46464;BME280;32161;48.148;-1.554;2022-11-15T07:47:57;99384.75;;;12.53;100.00
46464;BME280;32161;48.148;-1.554;2022-11-15T07:50:25;99372.53;;;12.50;100.00
46464;BME280;32161;48.148;-1.554;2022-11-15T07:52:56;99378.53;;;12.42;100.00
46464;BME280;32161;48.148;-1.554;2022-11-15T07:55:25;99381.53;;;12.40;100.00
46464;BME280;32161;48.148;-1.554;2022-11-15T07:57:53;99386.47;;;12.38;100.00
46464;BME280;32161;48.148;-1.554;2022-11-15T08:00:28;99396.81;;;12.31;100.00
46464;BME280;32161;48.148;-1.554;2022-11-15T08:03:03;99389.16;;;12.33;100.00
46464;BME280;32161;48.148;-1.554;2022-11-15T08:05:31;99387.22;;;12.49;100.00
46464;BME280;32161;48.148;-1.554;2022-11-15T08:07:59;99401.09;;;12.63;100.00
46464;BME280;32161;48.148;-1.554;2022-11-15T08:10:28;99393.00;;;12.42;100.00
46464;BME280;32161;48.148;-1.554;2022-11-15T08:12:59;99394.63;;;12.43;100.00
46464;BME280;32161;48.148;-1.554;2022-11-15T08:15:29;99407.69;;;12.46;100.00
46464;BME280;32161;48.148;-1.554;2022-11-15T08:17:59;99396.75;;;12.57;100.00
46464;BME280;32161;48.148;-1.554;2022-11-15T08:20:28;99409.88;;;12.50;100.00
46464;BME280;32161;48.148;-1.554;2022-11-15T08:22:56;99415.53;;;12.63;100.00
46464;BME280;32161;48.148;-1.554;2022-11-15T08:25:24;99413.09;;;12.67;100.00
46464;BME280;32161;48.148;-1.554;2022-11-15T08:27:53;99383.69;;;12.59;100.00
46464;BME280;32161;48.148;-1.554;2022-11-15T08:30:21;99385.63;;;12.43;100.00
46464;BME280;32161;48.148;-1.554;2022-11-15T08:32:52;99392.94;;;12.63;100.00
46464;BME280;32161;48.148;-1.554;2022-11-15T08:35:21;99395.94;;;12.56;100.00
46464;BME280;32161;48.148;-1.554;2022-11-15T08:37:48;99393.47;;;12.60;100.00
46464;BME280;32161;48.148;-1.554;2022-11-15T08:40:16;99396.47;;;12.63;100.00
46464;BME280;32161;48.148;-1.554;2022-11-15T08:42:46;99409.78;;;12.75;100.00
46464;BME280;32161;48.148;-1.554;2022-11-15T08:45:14;99394.81;;;12.73;100.00
46464;BME280;32161;48.148;-1.554;2022-11-15T08:47:42;99384.44;;;12.75;100.00
46464;BME280;32161;48.148;-1.554;2022-11-15T08:50:11;99368.88;;;12.85;100.00
46464;BME280;32161;48.148;-1.554;2022-11-15T08:52:38;99383.34;;;12.81;100.00
46464;BME280;32161;48.148;-1.554;2022-11-15T08:55:07;99379.72;;;13.01;100.00
46464;BME280;32161;48.148;-1.554;2022-11-15T08:57:35;99374.28;;;12.90;100.00
46464;BME280;32161;48.148;-1.554;2022-11-15T09:00:04;99367.22;;;12.89;100.00
46464;BME280;32161;48.148;-1.554;2022-11-15T09:02:31;99354.84;;;13.07;100.00
46464;BME280;32161;48.148;-1.554;2022-11-15T09:04:59;99358.91;;;13.10;100.00
46464;BME280;32161;48.148;-1.554;2022-11-15T09:07:28;99358.06;;;13.14;100.00
46464;BME280;32161;48.148;-1.554;2022-11-15T09:09:56;99350.56;;;12.91;100.00
46464;BME280;32161;48.148;-1.554;2022-11-15T09:12:24;99361.38;;;13.06;100.00
46464;BME280;32161;48.148;-1.554;2022-11-15T09:14:53;99342.88;;;13.03;100.00
46464;BME280;32161;48.148;-1.554;2022-11-15T09:17:20;99337.25;;;12.84;100.00
46464;BME280;32161;48.148;-1.554;2022-11-15T09:19:48;99342.63;;;12.94;100.00
46464;BME280;32161;48.148;-1.554;2022-11-15T09:22:15;99338.50;;;13.02;100.00
46464;BME280;32161;48.148;-1.554;2022-11-15T09:24:45;99337.91;;;13.15;100.00
46464;BME280;32161;48.148;-1.554;2022-11-15T09:27:12;99338.75;;;13.11;100.00
46464;BME280;32161;48.148;-1.554;2022-11-15T09:29:40;99331.56;;;13.25;100.00
46464;BME280;32161;48.148;-1.554;2022-11-15T09:32:07;99333.22;;;13.21;100.00
46464;BME280;32161;48.148;-1.554;2022-11-15T09:34:35;99316.78;;;13.36;100.00
46464;BME280;32161;48.148;-1.554;2022-11-15T09:37:02;99321.19;;;13.22;100.00
46464;BME280;32161;48.148;-1.554;2022-11-15T09:39:30;99327.44;;;13.33;100.00
46464;BME280;32161;48.148;-1.554;2022-11-15T09:45:12;99327.69;;;13.36;100.00
46464;BME280;32161;48.148;-1.554;2022-11-15T09:48:09;99321.41;;;13.36;100.00
46464;BME280;32161;48.148;-1.554;2022-11-15T09:50:46;99329.66;;;13.31;100.00
46464;BME280;32161;48.148;-1.554;2022-11-15T09:53:22;99316.78;;;13.36;100.00
46464;BME280;32161;48.148;-1.554;2022-11-15T09:55:56;99324.84;;;13.57;100.00
46464;BME280;32161;48.148;-1.554;2022-11-15T09:58:34;99313.13;;;13.51;100.00
46464;BME280;32161;48.148;-1.554;2022-11-15T10:01:08;99309.81;;;13.54;100.00
46464;BME280;32161;48.148;-1.554;2022-11-15T10:03:40;99312.81;;;13.58;100.00
46464;BME280;32161;48.148;-1.554;2022-11-15T10:06:17;99313.72;;;13.43;100.00
46464;BME280;32161;48.148;-1.554;2022-11-15T10:08:57;99313.16;;;13.46;100.00
46464;BME280;32161;48.148;-1.554;2022-11-15T10:11:29;99314.47;;;13.54;100.00
46464;BME280;32161;48.148;-1.554;2022-11-15T10:14:00;99318.63;;;13.46;100.00
46464;BME280;32161;48.148;-1.554;2022-11-15T10:19:55;99299.03;;;13.39;100.00
46464;BME280;32161;48.148;-1.554;2022-11-15T10:22:38;99306.41;;;13.33;100.00
46464;BME280;32161;48.148;-1.554;2022-11-15T10:25:24;99298.16;;;13.43;100.00
46464;BME280;32161;48.148;-1.554;2022-11-15T10:27:56;99310.59;;;13.60;100.00
46464;BME280;32161;48.148;-1.554;2022-11-15T10:30:37;99310.06;;;13.58;100.00
46464;BME280;32161;48.148;-1.554;2022-11-15T10:33:24;99306.69;;;13.71;100.00
46464;BME280;32161;48.148;-1.554;2022-11-15T10:36:23;99315.56;;;13.53;100.00
46464;BME280;32161;48.148;-1.554;2022-11-15T10:38:58;99314.47;;;13.54;100.00
46464;BME280;32161;48.148;-1.554;2022-11-15T10:41:46;99312.69;;;13.68;100.00
46464;BME280;32161;48.148;-1.554;2022-11-15T10:44:26;99303.94;;;13.71;100.00
46464;BME280;32161;48.148;-1.554;2022-11-15T10:47:25;99293.63;;;13.63;100.00
46464;BME280;32161;48.148;-1.554;2022-11-15T10:50:00;99301.50;;;13.70;100.00
46464;BME280;32161;48.148;-1.554;2022-11-15T10:52:29;99284.03;;;13.71;100.00
46464;BME280;32161;48.148;-1.554;2022-11-15T10:55:03;99286.94;;;13.79;100.00
46464;BME280;32161;48.148;-1.554;2022-11-15T10:57:36;99286.41;;;14.06;100.00
46464;BME280;32161;48.148;-1.554;2022-11-15T11:00:12;99277.94;;;14.08;100.00
46464;BME280;32161;48.148;-1.554;2022-11-15T11:03:00;99274.47;;;14.26;100.00
46464;BME280;32161;48.148;-1.554;2022-11-15T11:05:31;99267.81;;;14.32;100.00
46464;BME280;32161;48.148;-1.554;2022-11-15T11:08:02;99267.38;;;14.49;100.00
46464;BME280;32161;48.148;-1.554;2022-11-15T11:10:30;99269.75;;;14.56;100.00
46464;BME280;32161;48.148;-1.554;2022-11-15T11:13:13;99261.34;;;14.71;100.00
46464;BME280;32161;48.148;-1.554;2022-11-15T11:15:42;99256.75;;;14.67;100.00
46464;BME280;32161;48.148;-1.554;2022-11-15T11:18:19;99240.81;;;14.74;100.00
46464;BME280;32161;48.148;-1.554;2022-11-15T11:20:56;99237.94;;;14.84;100.00
46464;BME280;32161;48.148;-1.554;2022-11-15T11:23:42;99244.34;;;14.93;100.00
46464;BME280;32161;48.148;-1.554;2022-11-15T11:26:42;99233.50;;;15.07;100.00
46464;BME280;32161;48.148;-1.554;2022-11-15T11:29:28;99226.72;;;15.18;100.00
46464;BME280;32161;48.148;-1.554;2022-11-15T11:32:09;99223.13;;;15.04;100.00
46464;BME280;32161;48.148;-1.554;2022-11-15T11:34:54;99216.06;;;15.03;100.00
46464;BME280;32161;48.148;-1.554;2022-11-15T11:37:33;99217.72;;;15.18;100.00
46464;BME280;32161;48.148;-1.554;2022-11-15T11:40:17;99220.50;;;15.31;100.00
46464;BME280;32161;48.148;-1.554;2022-11-15T11:42:56;99217.19;;;15.34;100.00
46464;BME280;32161;48.148;-1.554;2022-11-15T11:46:03;99209.34;;;15.28;100.00
46464;BME280;32161;48.148;-1.554;2022-11-15T11:48:42;99206.88;;;15.59;100.00
46464;BME280;32161;48.148;-1.554;2022-11-15T11:51:18;99201.06;;;15.79;100.00
46464;BME280;32161;48.148;-1.554;2022-11-15T11:53:53;99193.78;;;15.89;100.00
46464;BME280;32161;48.148;-1.554;2022-11-15T11:56:28;99190.31;;;15.69;100.00
46464;BME280;32161;48.148;-1.554;2022-11-15T11:59:09;99194.78;;;15.79;100.00
46464;BME280;32161;48.148;-1.554;2022-11-15T12:01:43;99186.38;;;16.03;96.12
46464;BME280;32161;48.148;-1.554;2022-11-15T12:04:16;99183.75;;;16.11;96.23
46464;BME280;32161;48.148;-1.554;2022-11-15T12:06:51;99194.19;;;16.09;96.11
46464;BME280;32161;48.148;-1.554;2022-11-15T12:09:26;99180.47;;;16.23;93.18
46464;BME280;32161;48.148;-1.554;2022-11-15T12:12:02;99180.78;;;16.22;94.02
46464;BME280;32161;48.148;-1.554;2022-11-15T12:14:47;99176.13;;;16.22;95.08
46464;BME280;32161;48.148;-1.554;2022-11-15T12:17:21;99186.84;;;16.32;92.70
46464;BME280;32161;48.148;-1.554;2022-11-15T12:19:50;99178.63;;;16.32;91.72
46464;BME280;32161;48.148;-1.554;2022-11-15T12:22:22;99175.59;;;16.20;93.23
46464;BME280;32161;48.148;-1.554;2022-11-15T12:24:58;99169.00;;;16.21;93.90
46464;BME280;32161;48.148;-1.554;2022-11-15T12:27:35;99167.88;;;16.36;91.82
46464;BME280;32161;48.148;-1.554;2022-11-15T12:30:10;99157.28;;;16.57;89.66
46464;BME280;32161;48.148;-1.554;2022-11-15T12:32:40;99167.47;;;16.43;90.04
46464;BME280;32161;48.148;-1.554;2022-11-15T12:35:27;99168.78;;;16.31;87.87
46464;BME280;32161;48.148;-1.554;2022-11-15T12:37:59;99163.72;;;16.25;87.12
46464;BME280;32161;48.148;-1.554;2022-11-15T12:40:30;99168.72;;;16.09;88.84
46464;BME280;32161;48.148;-1.554;2022-11-15T12:46:09;99154.81;;;15.92;86.32
46464;BME280;32161;48.148;-1.554;2022-11-15T12:49:00;99150.72;;;15.75;86.94
46464;BME280;32161;48.148;-1.554;2022-11-15T12:52:05;99153.69;;;15.79;86.78
46464;BME280;32161;48.148;-1.554;2022-11-15T12:57:42;99144.88;;;15.68;87.76
46464;BME280;32161;48.148;-1.554;2022-11-15T13:00:43;99137.75;;;15.67;85.58
46464;BME280;32161;48.148;-1.554;2022-11-15T13:03:23;99143.31;;;15.62;86.70
46464;BME280;32161;48.148;-1.554;2022-11-15T13:08:52;99130.19;;;15.59;86.57
46464;BME280;32161;48.148;-1.554;2022-11-15T13:11:50;99134.34;;;15.43;88.06
46464;BME280;32161;48.148;-1.554;2022-11-15T13:14:48;99129.78;;;15.52;87.41
46464;BME280;32161;48.148;-1.554;2022-11-15T13:17:34;99129.84;;;15.79;86.28
46464;BME280;32161;48.148;-1.554;2022-11-15T13:20:21;99137.84;;;15.90;85.31
46464;BME280;32161;48.148;-1.554;2022-11-15T13:22:51;99140.59;;;15.76;84.33
46464;BME280;32161;48.148;-1.554;2022-11-15T13:25:42;99141.28;;;15.68;84.67
46464;BME280;32161;48.148;-1.554;2022-11-15T13:28:26;99135.69;;;15.59;84.28
46464;BME280;32161;48.148;-1.554;2022-11-15T13:30:56;99144.09;;;15.62;84.43
46464;BME280;32161;48.148;-1.554;2022-11-15T13:33:29;99134.81;;;15.77;84.74